Time;durP1;ratioP1;P1;durP2;ratioP2;P2;SDS_P1;SDS_P2;PMS_P1;PMS_P2;Temp;Humidity;BMP_temperature;BMP_pressure;BME280_temperature;BME280_humidity;BME280_pressure;Samples;Min_cycle;Max_cycle;Signal;HPM_P1;HPM_P2
2021/06/26 00:01:13;;;;;;;9.13;6.03;;;15.60;99.90;;;;;;4894135;29;20673;-69
2021/06/26 00:03:41;;;;;;;7.33;6.30;;;15.60;99.90;;;;;;4895404;29;20294;-69
2021/06/26 00:06:09;;;;;;;6.23;5.63;;;15.50;99.90;;;;;;4895273;29;20205;-69
2021/06/26 00:08:38;;;;;;;7.23;5.40;;;15.60;99.90;;;;;;4904917;29;20624;-69
2021/06/26 00:11:06;;;;;;;7.67;5.90;;;15.60;99.90;;;;;;4894878;29;20190;-69
2021/06/26 00:13:34;;;;;;;7.37;5.77;;;15.50;99.90;;;;;;4895129;29;20199;-68
2021/06/26 00:16:03;;;;;;;7.37;5.63;;;15.60;99.90;;;;;;4889111;29;20332;-69
2021/06/26 00:18:33;;;;;;;7.97;5.90;;;15.50;99.90;;;;;;4890884;29;20203;-69
2021/06/26 00:21:01;;;;;;;9.83;6.30;;;15.50;99.90;;;;;;4893930;29;20209;-68
2021/06/26 00:23:30;;;;;;;9.00;6.00;;;15.50;99.90;;;;;;4891502;29;20290;-69
2021/06/26 00:26:15;;;;;;;8.60;5.83;;;15.50;99.90;;;;;;4895440;29;20226;-68
2021/06/26 00:28:43;;;;;;;7.57;5.97;;;15.50;99.90;;;;;;4895588;29;20711;-69
2021/06/26 00:31:12;;;;;;;8.57;5.80;;;15.50;99.90;;;;;;4894602;29;20195;-69
2021/06/26 00:33:42;;;;;;;9.80;6.17;;;15.50;99.90;;;;;;4890154;29;20747;-69
2021/06/26 00:36:11;;;;;;;7.63;5.73;;;15.50;99.90;;;;;;4894319;29;20238;-69
2021/06/26 00:38:39;;;;;;;8.47;6.23;;;15.50;99.90;;;;;;4893497;29;20286;-69
2021/06/26 00:41:08;;;;;;;9.57;6.17;;;15.50;99.90;;;;;;4895250;29;20242;-69
2021/06/26 00:43:36;;;;;;;10.20;6.87;;;15.50;99.90;;;;;;4909283;29;20217;-68
2021/06/26 00:46:04;;;;;;;8.70;7.10;;;15.50;99.90;;;;;;4894861;29;20211;-69
2021/06/26 00:48:33;;;;;;;13.50;7.03;;;15.50;99.90;;;;;;4893837;29;20218;-69
2021/06/26 00:51:03;;;;;;;11.33;8.07;;;15.50;99.90;;;;;;4894122;29;20202;-69
2021/06/26 00:53:31;;;;;;;14.07;7.83;;;15.50;99.90;;;;;;4893283;29;20221;-70
2021/06/26 00:55:59;;;;;;;11.50;7.30;;;15.40;99.90;;;;;;4893347;29;20191;-69
2021/06/26 00:58:29;;;;;;;10.53;7.47;;;15.40;99.90;;;;;;4894728;29;20673;-70
2021/06/26 01:00:57;;;;;;;12.30;7.40;;;15.40;99.90;;;;;;4892707;29;20198;-70
2021/06/26 01:03:26;;;;;;;11.53;7.50;;;15.40;99.90;;;;;;4894364;29;20816;-70
2021/06/26 01:05:54;;;;;;;11.77;8.10;;;15.50;99.90;;;;;;4893935;29;20196;-71
2021/06/26 01:08:25;;;;;;;13.73;7.70;;;15.50;99.90;;;;;;4893625;29;20214;-70
2021/06/26 01:10:55;;;;;;;11.97;7.70;;;15.40;99.90;;;;;;4893509;29;20205;-70
2021/06/26 01:13:24;;;;;;;12.60;8.10;;;15.40;99.90;;;;;;4893570;29;20198;-70
2021/06/26 01:15:52;;;;;;;10.07;8.20;;;15.50;99.90;;;;;;4892472;29;20194;-70
2021/06/26 01:18:21;;;;;;;12.90;8.03;;;15.50;99.90;;;;;;4893623;29;20229;-70
2021/06/26 01:20:49;;;;;;;14.13;9.17;;;15.50;99.90;;;;;;4883328;29;20321;-70
2021/06/26 01:23:20;;;;;;;13.90;8.73;;;15.50;99.90;;;;;;4875995;29;20282;-70
2021/06/26 01:25:48;;;;;;;13.80;8.83;;;15.50;99.90;;;;;;4875353;29;20207;-70
2021/06/26 01:28:17;;;;;;;17.63;9.47;;;15.40;99.90;;;;;;4875728;29;20215;-70
2021/06/26 01:30:45;;;;;;;17.27;9.03;;;15.40;99.90;;;;;;4882522;29;20294;-70
2021/06/26 01:33:15;;;;;;;13.93;9.50;;;15.40;99.90;;;;;;4875680;29;20536;-71
2021/06/26 01:35:43;;;;;;;14.77;10.23;;;15.40;99.90;;;;;;4875578;29;20679;-70
2021/06/26 01:38:11;;;;;;;17.07;10.07;;;15.40;99.90;;;;;;4877108;29;20231;-71
2021/06/26 01:40:41;;;;;;;17.13;10.57;;;15.40;99.90;;;;;;4891687;29;20224;-71
2021/06/26 01:43:12;;;;;;;17.77;10.20;;;15.40;99.90;;;;;;4875327;29;20293;-70
2021/06/26 01:45:41;;;;;;;14.57;10.10;;;15.30;99.90;;;;;;4881891;29;20202;-70
2021/06/26 01:48:09;;;;;;;19.47;10.03;;;15.40;99.90;;;;;;4879791;29;20306;-70
2021/06/26 01:50:38;;;;;;;15.77;9.57;;;15.40;99.90;;;;;;4872010;29;20195;-70
2021/06/26 01:53:06;;;;;;;16.30;9.10;;;15.30;99.90;;;;;;4888150;29;20205;-70
2021/06/26 01:55:34;;;;;;;15.70;9.23;;;15.40;99.90;;;;;;4875194;29;20283;-71
2021/06/26 01:58:04;;;;;;;12.90;8.30;;;15.40;99.90;;;;;;4884068;29;20210;-70
2021/06/26 02:00:32;;;;;;;13.20;8.37;;;15.40;99.90;;;;;;4874894;29;20212;-71
2021/06/26 02:03:01;;;;;;;15.73;9.10;;;15.40;99.90;;;;;;4878517;29;20594;-70
2021/06/26 02:05:29;;;;;;;13.33;8.60;;;15.30;99.90;;;;;;4883836;29;20285;-70
2021/06/26 02:08:01;;;;;;;12.87;7.80;;;15.30;99.90;;;;;;4876945;29;20233;-70
2021/06/26 02:10:29;;;;;;;12.77;8.67;;;15.30;99.90;;;;;;4875930;29;20204;-70
2021/06/26 02:12:58;;;;;;;10.87;7.73;;;15.30;99.90;;;;;;4875963;29;20227;-70
2021/06/26 02:15:28;;;;;;;15.53;8.23;;;15.30;99.90;;;;;;4878605;29;20203;-70
2021/06/26 02:17:57;;;;;;;12.27;7.60;;;15.30;99.90;;;;;;4878180;29;20764;-70
2021/06/26 02:20:25;;;;;;;12.23;7.70;;;15.30;99.90;;;;;;4880585;29;20287;-71
2021/06/26 02:22:56;;;;;;;9.97;8.17;;;15.30;99.90;;;;;;4882247;29;20211;-71
2021/06/26 02:25:25;;;;;;;10.87;7.40;;;15.30;99.90;;;;;;4879095;29;20250;-70
2021/06/26 02:27:55;;;;;;;12.60;8.60;;;15.30;99.90;;;;;;4884062;29;20234;-70
2021/06/26 02:30:23;;;;;;;11.60;8.50;;;15.30;99.90;;;;;;4877974;29;20329;-70
2021/06/26 02:32:53;;;;;;;9.77;7.57;;;15.30;99.90;;;;;;4878230;29;20249;-71
2021/06/26 02:35:21;;;;;;;11.93;7.60;;;15.30;99.90;;;;;;4885865;29;20209;-70
2021/06/26 02:37:50;;;;;;;8.73;7.17;;;15.30;99.90;;;;;;4878948;29;20231;-71
2021/06/26 02:40:18;;;;;;;11.53;8.23;;;15.30;99.90;;;;;;4878450;29;20247;-71
2021/06/26 02:42:47;;;;;;;10.97;7.90;;;15.30;99.90;;;;;;4869949;29;20226;-70
2021/06/26 02:45:16;;;;;;;11.03;7.53;;;15.30;99.90;;;;;;4885541;29;20198;-71
2021/06/26 02:47:44;;;;;;;9.17;7.30;;;15.30;99.90;;;;;;4878469;29;20198;-70
2021/06/26 02:50:14;;;;;;;8.43;7.10;;;15.30;99.90;;;;;;4878593;29;20310;-70
2021/06/26 02:52:43;;;;;;;8.70;6.17;;;15.30;99.90;;;;;;4877558;29;20263;-70
2021/06/26 02:55:12;;;;;;;10.03;6.97;;;15.30;99.90;;;;;;4885573;29;20227;-70
2021/06/26 02:57:41;;;;;;;8.70;7.27;;;15.20;99.90;;;;;;4878840;29;20222;-70
2021/06/26 03:00:11;;;;;;;6.77;6.00;;;15.20;99.90;;;;;;4889299;29;20251;-70
2021/06/26 03:02:40;;;;;;;7.03;5.80;;;15.20;99.90;;;;;;4878363;29;20230;-70
2021/06/26 03:05:11;;;;;;;7.30;6.17;;;15.20;99.90;;;;;;4880509;29;20199;-70
2021/06/26 03:07:49;;;;;;;6.77;6.07;;;15.30;99.90;;;;;;4877462;29;20899;-69
2021/06/26 03:10:18;;;;;;;6.87;6.00;;;15.30;99.90;;;;;;4887017;29;20245;-70
2021/06/26 03:12:46;;;;;;;7.77;6.30;;;15.30;99.90;;;;;;4876489;29;20207;-70
2021/06/26 03:15:15;;;;;;;10.17;6.50;;;15.30;99.90;;;;;;4888699;29;20197;-70
2021/06/26 03:17:44;;;;;;;6.47;5.77;;;15.30;99.90;;;;;;4883081;29;20200;-70
2021/06/26 03:20:12;;;;;;;6.67;6.00;;;15.20;99.90;;;;;;4882876;29;20236;-70
2021/06/26 03:22:42;;;;;;;7.70;6.03;;;15.30;99.90;;;;;;4877395;29;20203;-70
2021/06/26 03:25:13;;;;;;;7.00;5.87;;;15.30;99.90;;;;;;4877668;29;20209;-72
2021/06/26 03:27:42;;;;;;;7.60;6.63;;;15.30;99.90;;;;;;4877582;29;20199;-71
2021/06/26 03:30:12;;;;;;;7.63;6.43;;;15.30;99.90;;;;;;4876420;29;20246;-70
2021/06/26 03:32:40;;;;;;;7.60;6.17;;;15.30;99.90;;;;;;4876404;29;20571;-71
2021/06/26 03:35:09;;;;;;;8.67;6.53;;;15.30;99.90;;;;;;4878096;29;20199;-70
2021/06/26 03:37:37;;;;;;;7.57;6.77;;;15.30;99.90;;;;;;4865664;29;20383;-70
2021/06/26 03:40:08;;;;;;;12.03;6.97;;;15.30;99.90;;;;;;4881532;29;20202;-70
2021/06/26 03:42:37;;;;;;;10.43;6.83;;;15.30;99.90;;;;;;4889945;29;20288;-71
2021/06/26 03:45:08;;;;;;;10.27;8.10;;;15.30;99.90;;;;;;4883098;29;20298;-70
2021/06/26 03:47:36;;;;;;;12.40;8.63;;;15.30;99.90;;;;;;4877666;29;20289;-71
2021/06/26 03:50:06;;;;;;;14.23;10.20;;;15.30;99.90;;;;;;4878874;29;20222;-70
2021/06/26 03:52:34;;;;;;;10.23;8.57;;;15.30;99.90;;;;;;4882394;29;20302;-70
2021/06/26 03:55:03;;;;;;;16.40;9.13;;;15.30;99.90;;;;;;4871985;29;20295;-70
2021/06/26 03:57:32;;;;;;;11.83;8.23;;;15.30;99.90;;;;;;4877098;29;20233;-70
2021/06/26 04:00:01;;;;;;;10.10;8.20;;;15.40;99.90;;;;;;4893520;29;20190;-70
2021/06/26 04:02:29;;;;;;;11.43;9.07;;;15.30;99.90;;;;;;4877354;29;20321;-70
2021/06/26 04:04:57;;;;;;;12.73;8.30;;;15.30;99.90;;;;;;4877475;29;20206;-70
2021/06/26 04:07:25;;;;;;;9.70;8.50;;;15.30;99.90;;;;;;4883183;29;20232;-69
2021/06/26 04:09:54;;;;;;;13.83;8.33;;;15.30;99.90;;;;;;4878053;29;20869;-70
2021/06/26 04:12:22;;;;;;;11.47;8.77;;;15.40;99.90;;;;;;4876444;29;20247;-69
2021/06/26 04:14:52;;;;;;;12.60;8.50;;;15.40;99.90;;;;;;4872854;29;20291;-71
2021/06/26 04:17:20;;;;;;;13.27;8.40;;;15.40;99.90;;;;;;4876491;29;20199;-70
2021/06/26 04:19:51;;;;;;;10.97;8.30;;;15.40;99.90;;;;;;4876089;29;20196;-70
2021/06/26 04:22:19;;;;;;;9.43;7.70;;;15.40;99.90;;;;;;4873791;29;20722;-70
2021/06/26 04:24:48;;;;;;;8.40;7.40;;;15.40;99.90;;;;;;4873927;29;20598;-71
2021/06/26 04:27:16;;;;;;;7.87;7.07;;;15.40;99.90;;;;;;4879067;29;20285;-70
2021/06/26 04:29:44;;;;;;;10.73;6.97;;;15.40;99.90;;;;;;4874853;29;20218;-71
2021/06/26 04:32:15;;;;;;;10.90;7.87;;;15.40;99.90;;;;;;4875603;29;20203;-70
2021/06/26 04:34:43;;;;;;;11.23;8.40;;;15.50;99.90;;;;;;4875170;29;20207;-70
2021/06/26 04:37:11;;;;;;;11.03;8.20;;;15.40;99.90;;;;;;4878134;29;20301;-70
2021/06/26 04:39:40;;;;;;;9.73;7.97;;;15.40;99.90;;;;;;4876868;29;20200;-70
2021/06/26 04:42:09;;;;;;;10.30;8.37;;;15.40;99.90;;;;;;4877439;29;20203;-71
2021/06/26 04:44:37;;;;;;;13.07;8.27;;;15.40;99.90;;;;;;4881368;29;20195;-70
2021/06/26 04:47:05;;;;;;;9.40;7.73;;;15.40;99.90;;;;;;4875136;29;20208;-70
2021/06/26 04:49:36;;;;;;;8.50;7.03;;;15.40;99.90;;;;;;4875116;29;20289;-70
2021/06/26 04:52:05;;;;;;;7.97;7.20;;;15.40;99.90;;;;;;4884623;29;20648;-70
2021/06/26 04:54:33;;;;;;;8.77;6.60;;;15.40;99.90;;;;;;4874888;29;20235;-70
2021/06/26 04:57:02;;;;;;;10.53;7.43;;;15.40;99.90;;;;;;4880230;29;20301;-70
2021/06/26 04:59:30;;;;;;;8.30;6.67;;;15.40;99.90;;;;;;4873746;29;20203;-70
2021/06/26 05:01:58;;;;;;;7.80;6.47;;;15.40;99.90;;;;;;4870863;29;20237;-70
2021/06/26 05:04:27;;;;;;;6.90;5.83;;;15.40;99.90;;;;;;4862629;29;20215;-70
2021/06/26 05:06:57;;;;;;;6.93;6.23;;;15.40;99.90;;;;;;4876256;29;20209;-70
2021/06/26 05:09:25;;;;;;;8.23;5.53;;;15.40;99.90;;;;;;4878241;29;20293;-70
2021/06/26 05:11:53;;;;;;;5.80;5.30;;;15.40;99.90;;;;;;4878634;29;20215;-71
2021/06/26 05:14:22;;;;;;;6.63;5.63;;;15.40;99.90;;;;;;4876402;29;20250;-71
2021/06/26 05:16:50;;;;;;;5.73;5.23;;;15.50;99.90;;;;;;4881900;29;20199;-71
2021/06/26 05:19:18;;;;;;;7.07;5.20;;;15.50;99.90;;;;;;4874988;29;20195;-71
2021/06/26 05:21:47;;;;;;;7.73;6.03;;;15.50;99.90;;;;;;4875965;29;20219;-71
2021/06/26 05:24:17;;;;;;;5.60;5.10;;;15.50;99.90;;;;;;4874911;29;20237;-70
2021/06/26 05:26:45;;;;;;;8.27;6.07;;;15.50;99.90;;;;;;4873056;29;20205;-70
2021/06/26 05:29:14;;;;;;;7.80;5.73;;;15.60;99.90;;;;;;4875199;29;20230;-70
2021/06/26 05:31:42;;;;;;;6.93;6.23;;;15.60;99.90;;;;;;4876955;29;20214;-70
2021/06/26 05:34:10;;;;;;;7.33;6.40;;;15.60;99.90;;;;;;4879027;29;20293;-70
2021/06/26 05:36:38;;;;;;;6.00;5.50;;;15.60;99.90;;;;;;4870112;29;20848;-70
2021/06/26 05:39:07;;;;;;;6.43;5.83;;;15.60;99.90;;;;;;4869720;29;20286;-70
2021/06/26 05:41:36;;;;;;;6.73;5.70;;;15.60;99.90;;;;;;4874208;29;20232;-71
2021/06/26 05:44:05;;;;;;;7.63;6.07;;;15.60;99.90;;;;;;4874325;29;20286;-70
2021/06/26 05:46:34;;;;;;;9.43;6.20;;;15.70;99.90;;;;;;4874875;29;20209;-69
2021/06/26 05:49:03;;;;;;;6.10;5.63;;;15.60;99.90;;;;;;4871918;29;20198;-70
2021/06/26 05:51:31;;;;;;;6.03;5.53;;;15.60;99.90;;;;;;4870053;29;20223;-69
2021/06/26 05:54:00;;;;;;;6.50;5.90;;;15.60;99.90;;;;;;4877500;29;20221;-69
2021/06/26 05:56:28;;;;;;;5.60;5.20;;;15.70;99.90;;;;;;4872215;29;20203;-70
2021/06/26 05:58:58;;;;;;;6.30;5.70;;;15.70;99.90;;;;;;4879112;29;20286;-70
2021/06/26 06:01:26;;;;;;;5.50;5.10;;;15.60;99.90;;;;;;4871168;29;20334;-70
2021/06/26 06:03:54;;;;;;;5.70;5.03;;;15.60;99.90;;;;;;4871760;29;20213;-70
2021/06/26 06:06:23;;;;;;;5.93;5.50;;;15.70;99.90;;;;;;4867902;29;20315;-69
2021/06/26 06:08:51;;;;;;;7.73;6.13;;;15.70;99.90;;;;;;4873747;29;20230;-70
2021/06/26 06:11:19;;;;;;;6.83;6.10;;;15.70;99.90;;;;;;4874991;29;20305;-71
2021/06/26 06:13:48;;;;;;;6.50;5.90;;;15.70;99.90;;;;;;4883287;29;20201;-70
2021/06/26 06:16:18;;;;;;;6.40;5.90;;;15.70;99.90;;;;;;4871707;29;20208;-70
2021/06/26 06:18:47;;;;;;;6.60;5.90;;;15.80;99.90;;;;;;4873975;29;20188;-70
2021/06/26 06:21:15;;;;;;;6.10;5.60;;;15.80;99.90;;;;;;4867714;29;20285;-70
2021/06/26 06:23:44;;;;;;;6.20;5.60;;;15.80;99.90;;;;;;4873563;29;20237;-70
2021/06/26 06:26:13;;;;;;;5.93;5.50;;;15.80;99.90;;;;;;4873339;29;20206;-70
2021/06/26 06:28:41;;;;;;;5.70;5.20;;;15.80;99.90;;;;;;4873539;29;20198;-70
2021/06/26 06:31:10;;;;;;;5.93;5.43;;;15.80;99.90;;;;;;4871101;29;20765;-70
2021/06/26 06:33:39;;;;;;;6.37;5.67;;;15.90;99.90;;;;;;4875191;29;20200;-70
2021/06/26 06:36:08;;;;;;;5.43;5.03;;;15.90;99.90;;;;;;4876789;29;20201;-70
2021/06/26 06:38:37;;;;;;;6.23;5.73;;;16.00;99.90;;;;;;4876392;29;20238;-70
2021/06/26 06:41:06;;;;;;;6.17;5.57;;;16.10;99.90;;;;;;4880034;29;20200;-70
2021/06/26 06:43:35;;;;;;;6.63;6.03;;;16.20;99.90;;;;;;4878164;29;20212;-70
2021/06/26 06:46:05;;;;;;;9.63;7.37;;;16.30;99.90;;;;;;4875099;29;20197;-70
2021/06/26 06:48:34;;;;;;;6.50;6.00;;;16.40;99.90;;;;;;4879670;29;20229;-69
2021/06/26 06:51:03;;;;;;;9.93;4.77;;;16.40;99.90;;;;;;4870824;29;20325;-70
2021/06/26 06:53:32;;;;;;;5.43;5.00;;;16.40;99.90;;;;;;4868423;29;20664;-69
2021/06/26 06:56:00;;;;;;;5.40;4.90;;;16.50;99.90;;;;;;4869205;29;20290;-70
2021/06/26 06:58:28;;;;;;;5.73;4.70;;;16.50;99.90;;;;;;4878078;29;20212;-70
2021/06/26 07:00:57;;;;;;;5.47;5.07;;;16.60;99.90;;;;;;4871033;29;20206;-70
2021/06/26 07:03:25;;;;;;;4.90;4.50;;;16.60;99.90;;;;;;4892356;29;20237;-70
2021/06/26 07:05:53;;;;;;;5.60;5.10;;;16.60;99.90;;;;;;4870453;29;20188;-70
2021/06/26 07:08:23;;;;;;;5.30;4.53;;;16.60;99.90;;;;;;4870046;29;20254;-70
2021/06/26 07:10:52;;;;;;;5.53;4.73;;;16.70;99.90;;;;;;4880417;29;20947;-70
2021/06/26 07:13:20;;;;;;;4.57;4.27;;;16.80;99.90;;;;;;4885422;29;20296;-70
2021/06/26 07:15:48;;;;;;;4.20;4.00;;;16.80;99.90;;;;;;4875807;29;20257;-69
2021/06/26 07:18:17;;;;;;;4.30;4.00;;;16.80;99.90;;;;;;4877344;29;20228;-69
2021/06/26 07:20:45;;;;;;;4.43;4.23;;;16.90;99.90;;;;;;4876098;29;20262;-69
2021/06/26 07:23:13;;;;;;;4.10;3.90;;;16.90;99.90;;;;;;4875892;29;20218;-70
2021/06/26 07:25:43;;;;;;;3.97;3.53;;;17.00;99.90;;;;;;4875667;29;20254;-70
2021/06/26 07:28:11;;;;;;;3.80;3.23;;;17.10;99.90;;;;;;4875682;29;20199;-70
2021/06/26 07:30:40;;;;;;;2.50;2.40;;;17.20;99.90;;;;;;4875158;29;20686;-69
2021/06/26 07:33:08;;;;;;;2.63;2.10;;;17.20;99.90;;;;;;4875997;29;20218;-69
2021/06/26 07:35:36;;;;;;;1.93;1.90;;;17.30;99.90;;;;;;4878677;29;20611;-69
2021/06/26 07:38:05;;;;;;;2.53;2.30;;;17.40;99.90;;;;;;4877285;29;20203;-69
2021/06/26 07:40:33;;;;;;;2.00;1.90;;;17.40;99.90;;;;;;4875365;29;20277;-68
2021/06/26 07:43:03;;;;;;;1.83;1.83;;;17.30;99.90;;;;;;4876199;29;20190;-68
2021/06/26 07:45:31;;;;;;;1.73;1.73;;;17.30;99.90;;;;;;4876063;29;20219;-69
2021/06/26 07:48:07;;;;;;;2.07;2.07;;;17.20;99.90;;;;;;4874883;29;20710;-69
2021/06/26 07:50:36;;;;;;;2.03;2.03;;;17.20;99.90;;;;;;4878226;29;20602;-69
2021/06/26 07:53:04;;;;;;;2.20;2.10;;;17.10;99.90;;;;;;4875478;29;20804;-68
2021/06/26 07:55:33;;;;;;;2.37;2.17;;;17.10;99.90;;;;;;4873600;29;20195;-69
2021/06/26 07:58:04;;;;;;;2.30;2.20;;;17.10;99.90;;;;;;4875289;29;20807;-69
2021/06/26 08:00:32;;;;;;;2.10;2.00;;;17.10;99.90;;;;;;4877012;29;20234;-68
2021/06/26 08:03:01;;;;;;;2.10;2.10;;;17.10;99.90;;;;;;4875318;29;20824;-69
2021/06/26 08:05:30;;;;;;;2.40;2.20;;;17.00;99.90;;;;;;4874138;29;20266;-69
2021/06/26 08:07:58;;;;;;;2.13;2.03;;;17.00;99.90;;;;;;4875838;29;20198;-68
2021/06/26 08:10:26;;;;;;;2.17;2.10;;;17.00;99.90;;;;;;4874517;29;20294;-69
2021/06/26 08:12:55;;;;;;;2.23;2.13;;;17.00;99.90;;;;;;4876332;29;20218;-69
2021/06/26 08:15:24;;;;;;;2.70;2.60;;;17.10;99.90;;;;;;4874939;29;20698;-69
2021/06/26 08:17:53;;;;;;;2.20;2.20;;;17.10;99.90;;;;;;4875499;29;20758;-68
2021/06/26 08:20:21;;;;;;;2.60;2.40;;;17.00;99.90;;;;;;4875165;29;20232;-69
2021/06/26 08:22:50;;;;;;;2.10;2.10;;;17.00;99.90;;;;;;4874119;29;20215;-68
2021/06/26 08:25:19;;;;;;;2.37;2.27;;;17.10;99.90;;;;;;4871526;29;20321;-69
2021/06/26 08:27:47;;;;;;;2.47;2.37;;;17.10;99.90;;;;;;4879087;29;20212;-69
2021/06/26 08:30:16;;;;;;;3.50;2.60;;;17.20;99.90;;;;;;4873941;29;20278;-69
2021/06/26 08:32:46;;;;;;;2.83;2.50;;;17.30;99.90;;;;;;4875453;29;20275;-69
2021/06/26 08:35:15;;;;;;;2.40;2.30;;;17.30;99.90;;;;;;4873411;29;20206;-68
2021/06/26 08:37:44;;;;;;;2.40;2.40;;;17.30;99.90;;;;;;4874100;29;20232;-69
2021/06/26 08:40:14;;;;;;;2.30;2.30;;;17.30;99.90;;;;;;4874398;29;20207;-68
2021/06/26 08:42:43;;;;;;;2.33;2.23;;;17.40;99.90;;;;;;4875114;29;20198;-68
2021/06/26 08:45:15;;;;;;;2.10;2.00;;;17.40;99.90;;;;;;4873950;29;20238;-69
2021/06/26 08:47:48;;;;;;;2.93;2.00;;;17.50;99.90;;;;;;4871901;29;20233;-68
2021/06/26 08:50:18;;;;;;;2.07;1.90;;;17.60;99.90;;;;;;4875217;29;20278;-69
2021/06/26 08:52:47;;;;;;;1.70;1.70;;;17.60;99.90;;;;;;4872549;29;20207;-69
2021/06/26 08:55:16;;;;;;;1.80;1.73;;;17.60;99.90;;;;;;4872940;29;20719;-68
2021/06/26 08:57:45;;;;;;;1.97;1.87;;;17.70;99.90;;;;;;4874644;29;20282;-69
2021/06/26 09:00:16;;;;;;;2.20;2.00;;;17.70;99.90;;;;;;4887517;29;20602;-68
2021/06/26 09:02:45;;;;;;;1.87;1.87;;;17.60;99.90;;;;;;4871000;29;20635;-69
2021/06/26 09:05:24;;;;;;;3.40;2.10;;;17.70;99.90;;;;;;4872999;29;20231;-69
2021/06/26 09:07:53;;;;;;;2.00;1.90;;;17.70;99.90;;;;;;4872198;29;20246;-67
2021/06/26 09:10:25;;;;;;;1.70;1.70;;;17.80;99.90;;;;;;4873646;29;20203;-67
2021/06/26 09:12:53;;;;;;;2.90;2.07;;;17.90;99.90;;;;;;4870766;29;20229;-69
2021/06/26 09:15:24;;;;;;;2.00;1.90;;;18.00;99.90;;;;;;4871404;29;20207;-69
2021/06/26 09:17:53;;;;;;;1.90;1.80;;;18.10;99.90;;;;;;4868098;29;20265;-70
2021/06/26 09:20:34;;;;;;;2.00;1.90;;;18.30;99.90;;;;;;4871839;29;20222;-69
2021/06/26 09:23:04;;;;;;;2.60;2.50;;;18.50;99.90;;;;;;4867373;29;20203;-69
2021/06/26 09:25:34;;;;;;;1.90;1.83;;;18.60;99.90;;;;;;4868641;29;20289;-69
2021/06/26 09:28:08;;;;;;;2.73;2.40;;;18.60;99.90;;;;;;4873523;29;20194;-70
2021/06/26 09:30:39;;;;;;;2.57;2.33;;;18.70;99.90;;;;;;4870742;29;20309;-70
2021/06/26 09:33:15;;;;;;;2.80;2.37;;;18.70;99.90;;;;;;4872336;29;20310;-69
2021/06/26 09:35:47;;;;;;;3.87;3.13;;;18.80;99.90;;;;;;4873608;29;20473;-70
2021/06/26 09:38:16;;;;;;;5.07;2.97;;;18.80;99.90;;;;;;4873928;29;20300;-69
2021/06/26 09:40:44;;;;;;;4.00;2.70;;;18.90;99.90;;;;;;4872660;29;20274;-69
2021/06/26 09:43:26;;;;;;;3.63;2.80;;;18.90;99.90;;;;;;4866574;29;20710;-70
2021/06/26 09:46:08;;;;;;;3.97;3.63;;;19.10;99.90;;;;;;4869087;29;20235;-70
2021/06/26 09:48:51;;;;;;;3.97;3.07;;;19.10;99.90;;;;;;4868063;29;20195;-69
2021/06/26 09:51:25;;;;;;;4.47;3.93;;;19.10;99.90;;;;;;4873265;29;20270;-69
2021/06/26 09:53:56;;;;;;;6.60;4.17;;;19.20;99.90;;;;;;4871311;29;20309;-69
2021/06/26 09:56:36;;;;;;;5.00;4.50;;;19.10;99.90;;;;;;4872790;29;20842;-70
2021/06/26 09:59:05;;;;;;;6.03;4.50;;;19.00;99.90;;;;;;4882515;29;20298;-69
2021/06/26 10:01:35;;;;;;;9.43;5.77;;;19.10;99.90;;;;;;4870012;29;20230;-69
2021/06/26 10:04:05;;;;;;;11.57;6.20;;;19.20;99.90;;;;;;4874426;29;20250;-72
2021/06/26 10:06:35;;;;;;;10.10;7.10;;;19.30;99.90;;;;;;4871462;29;20206;-69
2021/06/26 10:09:05;;;;;;;6.77;5.33;;;19.40;99.90;;;;;;4869088;29;20205;-69
2021/06/26 10:11:35;;;;;;;10.33;6.33;;;19.40;99.90;;;;;;4871581;29;20293;-69
2021/06/26 10:14:07;;;;;;;6.70;5.70;;;19.50;99.90;;;;;;4874667;29;20227;-70
2021/06/26 10:16:38;;;;;;;13.27;7.60;;;19.50;99.90;;;;;;4872122;29;20203;-67
2021/06/26 10:19:09;;;;;;;16.90;6.83;;;19.70;99.90;;;;;;4873732;29;20227;-67
2021/06/26 10:21:39;;;;;;;12.83;7.00;;;19.80;99.90;;;;;;4883106;29;20322;-66
2021/06/26 10:24:12;;;;;;;14.03;8.47;;;19.80;99.90;;;;;;4871957;29;20190;-65
2021/06/26 10:26:42;;;;;;;10.40;8.10;;;19.80;99.90;;;;;;4868421;29;20202;-64
2021/06/26 10:29:13;;;;;;;9.63;6.63;;;19.80;99.90;;;;;;4872358;29;20209;-64
2021/06/26 10:31:42;;;;;;;9.20;6.63;;;19.80;99.90;;;;;;4870651;29;20203;-64
2021/06/26 10:34:13;;;;;;;13.17;7.67;;;19.90;99.90;;;;;;4874648;29;20285;-64
2021/06/26 10:36:46;;;;;;;9.90;7.80;;;20.10;99.90;;;;;;4869937;29;21001;-63
2021/06/26 10:39:19;;;;;;;12.43;8.23;;;20.40;99.90;;;;;;4871455;29;20242;-63
2021/06/26 10:42:02;;;;;;;11.47;7.93;;;20.50;99.90;;;;;;4874119;29;20371;-63
2021/06/26 10:44:48;;;;;;;12.33;8.93;;;20.80;99.90;;;;;;4876855;29;20227;-64
2021/06/26 10:47:18;;;;;;;11.90;8.53;;;20.90;99.90;;;;;;4875116;29;20228;-64
2021/06/26 10:49:47;;;;;;;13.27;9.63;;;21.20;99.90;;;;;;4875767;29;20283;-63
2021/06/26 10:52:18;;;;;;;14.10;9.73;;;21.20;99.90;;;;;;4878941;29;20237;-64
2021/06/26 10:54:55;;;;;;;13.70;9.97;;;21.30;99.90;;;;;;4877332;29;20218;-64
2021/06/26 10:57:24;;;;;;;13.33;10.67;;;21.40;99.90;;;;;;4880903;29;20690;-64
2021/06/26 10:59:57;;;;;;;14.57;9.50;;;21.40;99.90;;;;;;4880645;29;20341;-64
2021/06/26 11:02:37;;;;;;;15.93;10.93;;;21.60;99.90;;;;;;4887658;29;20407;-64
2021/06/26 11:05:08;;;;;;;14.43;9.93;;;22.00;99.90;;;;;;4876461;29;20200;-64
2021/06/26 11:07:38;;;;;;;15.87;11.53;;;22.40;99.90;;;;;;4876496;29;20244;-64
2021/06/26 11:10:09;;;;;;;18.27;12.00;;;22.90;99.90;;;;;;4877070;29;20229;-64
2021/06/26 11:12:39;;;;;;;17.60;12.23;;;22.80;99.90;;;;;;4879059;29;20206;-64
2021/06/26 11:15:09;;;;;;;18.63;12.40;;;22.70;99.90;;;;;;4876503;29;20585;-64
2021/06/26 11:17:40;;;;;;;16.97;12.87;;;22.30;99.90;;;;;;4875500;29;20206;-64
2021/06/26 11:20:11;;;;;;;14.50;12.03;;;22.20;99.90;;;;;;4885107;29;20320;-63
2021/06/26 11:22:44;;;;;;;18.57;13.13;;;22.40;99.90;;;;;;4877956;29;20227;-63
2021/06/26 11:25:13;;;;;;;17.73;12.40;;;22.70;99.90;;;;;;4879913;29;20221;-64
2021/06/26 11:27:41;;;;;;;14.93;12.50;;;23.00;99.90;;;;;;4875935;29;20665;-63
2021/06/26 11:30:11;;;;;;;14.43;11.43;;;23.30;99.90;;;;;;4875822;29;20195;-64
2021/06/26 11:32:41;;;;;;;16.07;13.00;;;23.40;99.90;;;;;;4877813;29;20298;-64
2021/06/26 11:35:11;;;;;;;15.13;11.57;;;23.40;99.90;;;;;;4876099;29;20260;-64
2021/06/26 11:37:42;;;;;;;14.80;12.87;;;23.40;99.90;;;;;;4876833;29;20243;-63
2021/06/26 11:40:20;;;;;;;15.77;11.50;;;23.40;99.90;;;;;;4880067;29;20270;-64
2021/06/26 11:42:53;;;;;;;15.30;11.70;;;23.50;99.90;;;;;;4877092;29;20209;-63
2021/06/26 11:45:24;;;;;;;17.93;12.20;;;23.40;99.90;;;;;;4877593;29;20645;-64
2021/06/26 11:48:08;;;;;;;15.33;11.47;;;23.40;99.90;;;;;;4885813;29;20218;-64
2021/06/26 11:50:38;;;;;;;12.47;10.83;;;23.30;99.90;;;;;;4876736;29;20292;-63
2021/06/26 11:53:10;;;;;;;15.23;12.13;;;23.60;99.90;;;;;;4876355;29;20209;-64
2021/06/26 11:55:50;;;;;;;14.93;11.07;;;23.90;99.90;;;;;;4880982;29;20236;-64
2021/06/26 11:58:19;;;;;;;13.87;11.37;;;24.10;99.90;;;;;;4877251;29;20272;-64
2021/06/26 12:00:51;;;;;;;13.80;11.60;;;24.10;99.90;;;;;;4876585;29;20296;-64
2021/06/26 12:03:20;;;;;;;19.27;13.33;;;24.00;99.90;;;;;;4871063;29;20584;-64
2021/06/26 12:06:00;;;;;;;15.77;12.07;;;23.90;99.90;;;;;;4875603;29;20187;-64
2021/06/26 12:08:31;;;;;;;15.10;12.57;;;23.90;99.90;;;;;;4874588;29;20527;-64
2021/06/26 12:10:59;;;;;;;11.57;10.37;;;24.30;99.90;;;;;;4876810;29;20277;-64
2021/06/26 12:13:28;;;;;;;15.93;11.83;;;24.60;99.90;;;;;;4880582;29;20344;-63
2021/06/26 12:15:57;;;;;;;13.43;10.70;;;24.50;99.90;;;;;;4892404;29;20226;-63
2021/06/26 12:18:26;;;;;;;18.00;12.73;;;24.30;99.90;;;;;;4877724;29;20195;-65
2021/06/26 12:20:57;;;;;;;12.97;11.33;;;24.10;99.90;;;;;;4875582;29;20332;-65
2021/06/26 12:23:25;;;;;;;14.90;10.93;;;23.90;99.90;;;;;;4872172;29;20294;-65
2021/06/26 12:25:55;;;;;;;16.67;12.20;;;23.60;99.90;;;;;;4873978;29;20691;-65
2021/06/26 12:28:24;;;;;;;12.23;10.83;;;23.40;99.90;;;;;;4870871;29;20244;-65
2021/06/26 12:31:02;;;;;;;16.30;11.10;;;23.20;99.90;;;;;;4874825;29;20285;-65
2021/06/26 12:33:30;;;;;;;13.83;11.10;;;22.90;99.90;;;;;;4866970;29;20264;-65
2021/06/26 12:35:58;;;;;;;15.80;11.63;;;22.90;99.90;;;;;;4874112;29;20256;-65
2021/06/26 12:38:37;;;;;;;16.93;11.07;;;22.80;99.90;;;;;;4875496;29;20201;-65
2021/06/26 12:41:18;;;;;;;14.33;11.40;;;22.80;99.90;;;;;;4884889;29;20200;-65
2021/06/26 12:43:47;;;;;;;14.50;11.60;;;23.20;99.90;;;;;;4878682;29;20233;-65
2021/06/26 12:46:16;;;;;;;22.33;11.50;;;23.50;99.90;;;;;;4864954;29;20230;-68
2021/06/26 12:48:46;;;;;;;14.07;11.93;;;24.00;99.90;;;;;;4872256;29;20724;-66
2021/06/26 12:51:16;;;;;;;15.63;12.53;;;24.40;99.90;;;;;;4875131;29;20269;-66
2021/06/26 12:53:46;;;;;;;14.00;11.37;;;24.40;99.90;;;;;;4872828;29;20213;-66